Time;durP1;ratioP1;P1;durP2;ratioP2;P2;SDS_P1;SDS_P2;PMS_P1;PMS_P2;Temp;Humidity;BMP_temperature;BMP_pressure;BME280_temperature;BME280_humidity;BME280_pressure;Samples;Min_cycle;Max_cycle;Signal;HPM_P1;HPM_P2
2023/10/08 00:02:22;;;;;;;9.00;2.47;;;;;;;;;;5043468;28;20890;-78
2023/10/08 00:04:50;;;;;;;5.70;2.23;;;;;;;;;;5039581;28;20465;-78
2023/10/08 00:07:21;;;;;;;7.43;2.57;;;;;;;;;;5037296;28;20517;-78
2023/10/08 00:09:52;;;;;;;3.20;1.63;;;;;;;;;;5043653;28;20461;-79
2023/10/08 00:12:23;;;;;;;8.33;2.50;;;;;;;;;;5040135;28;20472;-77
2023/10/08 00:14:54;;;;;;;6.27;2.13;;;;;;;;;;5044110;28;20897;-77
2023/10/08 00:17:22;;;;;;;8.17;3.20;;;;;;;;;;5041060;28;20500;-77
2023/10/08 00:19:53;;;;;;;5.97;1.90;;;;;;;;;;5041312;28;20458;-77
2023/10/08 00:22:24;;;;;;;6.60;2.00;;;;;;;;;;5048388;28;20488;-78
2023/10/08 00:24:58;;;;;;;8.90;2.20;;;;;;;;;;5043951;28;20462;-78
2023/10/08 00:27:26;;;;;;;7.53;2.10;;;;;;;;;;5050680;28;20754;-78
2023/10/08 00:29:57;;;;;;;4.60;1.90;;;;;;;;;;5050555;28;20469;-77
2023/10/08 00:32:25;;;;;;;6.03;2.17;;;;;;;;;;5051694;28;20458;-79
2023/10/08 00:34:52;;;;;;;9.40;2.20;;;;;;;;;;5050454;28;20453;-77
2023/10/08 00:37:23;;;;;;;5.97;1.90;;;;;;;;;;5051635;28;20506;-78
2023/10/08 00:39:51;;;;;;;5.93;1.87;;;;;;;;;;5049546;28;20462;-77
2023/10/08 00:42:21;;;;;;;7.53;2.20;;;;;;;;;;5048887;28;20487;-79
2023/10/08 00:44:52;;;;;;;6.20;2.30;;;;;;;;;;5029860;28;20459;-78
2023/10/08 00:47:26;;;;;;;5.50;1.80;;;;;;;;;;5030789;28;20494;-78
2023/10/08 00:50:08;;;;;;;8.70;1.80;;;;;;;;;;5030921;28;20482;-78
2023/10/08 00:52:42;;;;;;;11.73;1.90;;;;;;;;;;5030969;28;20451;-76
2023/10/08 00:55:20;;;;;;;8.53;2.27;;;;;;;;;;5021240;28;20462;-77
2023/10/08 00:57:54;;;;;;;6.93;2.03;;;;;;;;;;5023239;28;20445;-78
2023/10/08 01:00:31;;;;;;;8.87;2.17;;;;;;;;;;5023218;28;20467;-79
2023/10/08 01:03:01;;;;;;;11.33;2.30;;;;;;;;;;5020064;28;20459;-78
2023/10/08 01:05:46;;;;;;;4.73;1.60;;;;;;;;;;5021358;28;20525;-78
2023/10/08 01:08:19;;;;;;;11.27;4.20;;;;;;;;;;5029891;28;20934;-78
2023/10/08 01:10:58;;;;;;;6.73;1.93;;;;;;;;;;5031056;28;20742;-78
2023/10/08 01:13:35;;;;;;;7.23;2.60;;;;;;;;;;5021096;28;20477;-77
2023/10/08 01:16:04;;;;;;;6.27;1.63;;;;;;;;;;5030133;28;20455;-78
2023/10/08 01:18:35;;;;;;;6.30;2.30;;;;;;;;;;5030618;28;20533;-79
2023/10/08 01:21:08;;;;;;;8.63;2.03;;;;;;;;;;5023351;28;20471;-77
2023/10/08 01:23:38;;;;;;;7.90;2.17;;;;;;;;;;5018958;28;20451;-77
2023/10/08 01:26:11;;;;;;;11.63;2.50;;;;;;;;;;5019571;28;20459;-77
2023/10/08 01:28:39;;;;;;;12.70;2.40;;;;;;;;;;5022892;28;20510;-77
2023/10/08 01:31:10;;;;;;;9.40;2.03;;;;;;;;;;5026256;28;20507;-79
2023/10/08 01:33:46;;;;;;;9.50;1.90;;;;;;;;;;5032786;28;20509;-77
2023/10/08 01:36:14;;;;;;;8.13;2.63;;;;;;;;;;5021708;28;20536;-79
2023/10/08 01:38:43;;;;;;;7.80;2.90;;;;;;;;;;5020653;28;20527;-77
2023/10/08 01:41:18;;;;;;;6.60;1.67;;;;;;;;;;5020594;28;20526;-77
2023/10/08 01:43:46;;;;;;;7.77;2.03;;;;;;;;;;5037238;28;20544;-77
2023/10/08 01:46:15;;;;;;;6.70;1.80;;;;;;;;;;5043067;28;20781;-78
2023/10/08 01:48:44;;;;;;;5.37;2.10;;;;;;;;;;5041483;28;20470;-79
2023/10/08 01:51:24;;;;;;;5.90;1.77;;;;;;;;;;5045616;28;20454;-78
2023/10/08 01:53:54;;;;;;;12.30;2.50;;;;;;;;;;5047919;28;20485;-78
2023/10/08 01:56:21;;;;;;;7.47;1.90;;;;;;;;;;5048603;28;20463;-78
2023/10/08 01:58:49;;;;;;;7.50;2.43;;;;;;;;;;5049496;28;20453;-78
2023/10/08 02:01:21;;;;;;;9.43;1.67;;;;;;;;;;5053179;28;20445;-79
2023/10/08 02:03:48;;;;;;;10.00;1.97;;;;;;;;;;5049098;28;20557;-80
2023/10/08 02:06:15;;;;;;;8.40;2.27;;;;;;;;;;5052422;28;20458;-78
2023/10/08 02:08:43;;;;;;;7.57;1.93;;;;;;;;;;5053254;28;20459;-76
2023/10/08 02:11:11;;;;;;;10.03;1.70;;;;;;;;;;5049128;28;20458;-79
2023/10/08 02:13:39;;;;;;;6.07;1.70;;;;;;;;;;5050623;28;20468;-78
2023/10/08 02:16:07;;;;;;;13.50;3.83;;;;;;;;;;5049462;28;20458;-79
2023/10/08 02:18:35;;;;;;;5.37;1.80;;;;;;;;;;5044287;28;20892;-78
2023/10/08 02:21:02;;;;;;;14.20;1.80;;;;;;;;;;5048772;28;20458;-78
2023/10/08 02:23:30;;;;;;;9.03;2.17;;;;;;;;;;5047094;28;20489;-79
2023/10/08 02:25:57;;;;;;;8.17;2.00;;;;;;;;;;5050027;28;20478;-79
2023/10/08 02:28:26;;;;;;;5.80;1.40;;;;;;;;;;5048861;28;20490;-79
2023/10/08 02:30:54;;;;;;;7.53;1.80;;;;;;;;;;5049341;28;20458;-79
2023/10/08 02:33:21;;;;;;;4.90;1.77;;;;;;;;;;5047862;28;20518;-78
2023/10/08 02:35:49;;;;;;;12.00;1.90;;;;;;;;;;5046580;28;20782;-78
2023/10/08 02:38:21;;;;;;;12.40;2.07;;;;;;;;;;5048421;28;20494;-78
2023/10/08 02:40:48;;;;;;;7.47;1.80;;;;;;;;;;5044192;28;20462;-78
2023/10/08 02:43:17;;;;;;;7.23;1.93;;;;;;;;;;5037457;28;20748;-78
2023/10/08 02:45:49;;;;;;;4.90;1.90;;;;;;;;;;5039514;28;20465;-78
2023/10/08 02:48:16;;;;;;;5.80;1.87;;;;;;;;;;5039187;28;20498;-78
2023/10/08 02:50:45;;;;;;;8.40;2.57;;;;;;;;;;5041364;28;20446;-78
2023/10/08 02:53:17;;;;;;;4.60;1.80;;;;;;;;;;5039225;28;20458;-78
2023/10/08 02:55:46;;;;;;;7.03;2.17;;;;;;;;;;5047490;28;20458;-78
2023/10/08 02:58:15;;;;;;;6.80;1.67;;;;;;;;;;5044520;28;20475;-80
2023/10/08 03:00:42;;;;;;;6.60;2.27;;;;;;;;;;5047704;28;20517;-80
2023/10/08 03:03:15;;;;;;;10.43;2.20;;;;;;;;;;5045845;28;20466;-78
2023/10/08 03:05:43;;;;;;;10.57;3.63;;;;;;;;;;5051221;28;20454;-79
2023/10/08 03:08:11;;;;;;;4.07;1.13;;;;;;;;;;5049231;28;20489;-78
2023/10/08 03:10:40;;;;;;;4.50;2.20;;;;;;;;;;5048248;28;20899;-77
2023/10/08 03:13:09;;;;;;;9.83;1.93;;;;;;;;;;5042239;28;20719;-77
2023/10/08 03:15:46;;;;;;;3.83;1.50;;;;;;;;;;5042440;28;20458;-78
2023/10/08 03:18:15;;;;;;;6.73;2.47;;;;;;;;;;5041989;28;20874;-78
2023/10/08 03:20:45;;;;;;;3.93;1.80;;;;;;;;;;5041892;28;20447;-78
2023/10/08 03:23:13;;;;;;;7.73;2.10;;;;;;;;;;5041091;28;20532;-78
2023/10/08 03:25:42;;;;;;;7.50;1.70;;;;;;;;;;5047524;28;20447;-79
2023/10/08 03:28:12;;;;;;;6.77;1.87;;;;;;;;;;5045432;28;20492;-79
2023/10/08 03:30:49;;;;;;;7.70;1.70;;;;;;;;;;5045607;28;20472;-78
2023/10/08 03:33:23;;;;;;;5.63;1.90;;;;;;;;;;5040166;28;20873;-78
2023/10/08 03:35:52;;;;;;;7.80;2.17;;;;;;;;;;5039670;28;20458;-79
2023/10/08 03:38:28;;;;;;;6.90;1.60;;;;;;;;;;5046526;28;20450;-78
2023/10/08 03:41:03;;;;;;;5.90;3.20;;;;;;;;;;5045067;28;20478;-78
2023/10/08 03:43:42;;;;;;;6.37;1.77;;;;;;;;;;5040423;28;20505;-78
2023/10/08 03:46:15;;;;;;;8.53;2.17;;;;;;;;;;5039593;28;20537;-79
2023/10/08 03:48:45;;;;;;;5.00;1.70;;;;;;;;;;5044083;28;20747;-79
2023/10/08 03:51:14;;;;;;;5.30;1.60;;;;;;;;;;5042994;28;20459;-78
2023/10/08 03:53:57;;;;;;;4.43;2.00;;;;;;;;;;5039573;28;20466;-78
2023/10/08 03:56:26;;;;;;;6.23;2.00;;;;;;;;;;5045448;28;20528;-79
2023/10/08 03:58:55;;;;;;;4.73;1.60;;;;;;;;;;5044568;28;20451;-79
2023/10/08 04:01:24;;;;;;;6.33;1.20;;;;;;;;;;5047281;28;20442;-79
2023/10/08 04:04:00;;;;;;;5.60;1.53;;;;;;;;;;5046114;28;20450;-79
2023/10/08 04:06:37;;;;;;;8.13;2.63;;;;;;;;;;5046153;28;20497;-78
2023/10/08 04:11:53;;;;;;;8.47;1.53;;;;;;;;;;5037834;28;20734;-78
2023/10/08 04:14:21;;;;;;;5.83;1.60;;;;;;;;;;5035997;28;20465;-78
2023/10/08 04:16:51;;;;;;;12.57;1.87;;;;;;;;;;5034956;28;20855;-78
2023/10/08 04:19:21;;;;;;;10.03;2.83;;;;;;;;;;5035810;28;20892;-78
2023/10/08 04:21:53;;;;;;;4.93;1.80;;;;;;;;;;5044285;28;20456;-78
2023/10/08 04:24:28;;;;;;;4.90;1.47;;;;;;;;;;5048770;28;20470;-78
2023/10/08 04:26:58;;;;;;;7.33;1.60;;;;;;;;;;5045857;28;20464;-78
2023/10/08 04:29:31;;;;;;;3.70;1.30;;;;;;;;;;5044869;28;20486;-77
2023/10/08 04:32:07;;;;;;;4.03;1.50;;;;;;;;;;5039607;28;20945;-77
2023/10/08 04:34:36;;;;;;;4.20;1.53;;;;;;;;;;5036601;28;20548;-77
2023/10/08 04:37:12;;;;;;;9.47;1.80;;;;;;;;;;5038071;28;20477;-78
2023/10/08 04:39:40;;;;;;;5.00;1.10;;;;;;;;;;5034860;28;20511;-77
2023/10/08 04:42:11;;;;;;;3.67;1.37;;;;;;;;;;5044440;28;20453;-79
2023/10/08 04:44:40;;;;;;;4.67;1.60;;;;;;;;;;5046074;28;20454;-79
2023/10/08 04:47:09;;;;;;;4.97;1.20;;;;;;;;;;5046644;28;20454;-79
2023/10/08 04:49:45;;;;;;;4.90;1.53;;;;;;;;;;5045700;28;20513;-79
2023/10/08 04:52:14;;;;;;;5.07;1.30;;;;;;;;;;5037313;28;20513;-77
2023/10/08 04:54:51;;;;;;;5.20;1.87;;;;;;;;;;5035883;28;20454;-78
2023/10/08 04:57:18;;;;;;;5.43;1.37;;;;;;;;;;5035064;28;20643;-78
2023/10/08 04:59:50;;;;;;;10.20;1.70;;;;;;;;;;5036070;28;20972;-78
2023/10/08 05:02:26;;;;;;;5.90;1.50;;;;;;;;;;5045092;28;20489;-79
2023/10/08 05:05:21;;;;;;;4.43;1.50;;;;;;;;;;5043723;28;20937;-78
2023/10/08 05:08:28;;;;;;;5.00;1.40;;;;;;;;;;5046578;28;20541;-79
2023/10/08 05:11:02;;;;;;;5.83;1.67;;;;;;;;;;5041734;28;20466;-77
2023/10/08 05:13:45;;;;;;;5.73;1.70;;;;;;;;;;5041507;28;20522;-77
2023/10/08 05:16:29;;;;;;;3.27;1.40;;;;;;;;;;5038096;28;20446;-78
2023/10/08 05:19:14;;;;;;;6.77;2.30;;;;;;;;;;5039058;28;20468;-78
2023/10/08 05:22:01;;;;;;;5.63;1.50;;;;;;;;;;5042815;28;20464;-78
2023/10/08 05:24:37;;;;;;;6.87;1.60;;;;;;;;;;5040135;28;20462;-78
2023/10/08 05:27:37;;;;;;;7.33;1.40;;;;;;;;;;5041688;28;20472;-78
2023/10/08 05:30:16;;;;;;;6.50;2.30;;;;;;;;;;5041572;28;20549;-77
2023/10/08 05:33:06;;;;;;;6.27;1.17;;;;;;;;;;5050507;28;20461;-78
2023/10/08 05:35:49;;;;;;;4.57;1.43;;;;;;;;;;5045357;28;20489;-76
2023/10/08 05:41:27;;;;;;;3.43;1.30;;;;;;;;;;5044156;28;20692;-77
2023/10/08 05:47:06;;;;;;;5.73;1.63;;;;;;;;;;5044449;28;20434;-77
2023/10/08 05:49:42;;;;;;;5.20;1.20;;;;;;;;;;5051586;28;20490;-78
2023/10/08 05:52:25;;;;;;;3.40;1.63;;;;;;;;;;5044676;28;20454;-77
2023/10/08 05:55:15;;;;;;;3.90;1.07;;;;;;;;;;5042017;28;20532;-77
2023/10/08 05:57:52;;;;;;;8.73;1.80;;;;;;;;;;5043885;28;20458;-78
2023/10/08 06:05:46;;;;;;;7.70;1.67;;;;;;;;;;5051435;28;20462;-77
2023/10/08 06:08:21;;;;;;;5.23;1.73;;;;;;;;;;5052530;28;20486;-78
2023/10/08 06:11:00;;;;;;;3.90;1.63;;;;;;;;;;5037049;28;20530;-77
2023/10/08 06:13:42;;;;;;;5.53;1.30;;;;;;;;;;5021480;28;20871;-77
2023/10/08 06:16:13;;;;;;;8.87;2.20;;;;;;;;;;5020648;28;20896;-77
2023/10/08 06:18:41;;;;;;;4.30;1.57;;;;;;;;;;5020362;28;20718;-78
2023/10/08 06:21:11;;;;;;;3.43;1.40;;;;;;;;;;5028702;28;20459;-78
2023/10/08 06:23:41;;;;;;;7.77;1.47;;;;;;;;;;5033721;28;20494;-78
2023/10/08 06:26:15;;;;;;;4.77;1.67;;;;;;;;;;5024067;28;20498;-77
2023/10/08 06:28:44;;;;;;;5.50;2.17;;;;;;;;;;5020047;28;20479;-77
2023/10/08 06:31:16;;;;;;;5.67;1.97;;;;;;;;;;5024156;28;20451;-78
2023/10/08 06:33:44;;;;;;;10.07;2.43;;;;;;;;;;5030439;28;20898;-78
2023/10/08 06:36:15;;;;;;;4.50;1.63;;;;;;;;;;5027186;28;20470;-78
2023/10/08 06:38:43;;;;;;;4.77;1.40;;;;;;;;;;5026475;28;20795;-78
2023/10/08 06:41:17;;;;;;;6.10;1.63;;;;;;;;;;5028922;28;20890;-77
2023/10/08 06:43:48;;;;;;;3.43;1.47;;;;;;;;;;5027250;28;20545;-78
2023/10/08 06:46:18;;;;;;;4.07;1.40;;;;;;;;;;5029134;28;20439;-79
2023/10/08 06:48:49;;;;;;;4.83;1.53;;;;;;;;;;5028227;28;20498;-79
2023/10/08 06:51:19;;;;;;;7.07;1.57;;;;;;;;;;5023998;28;20473;-78
2023/10/08 06:53:48;;;;;;;5.87;1.30;;;;;;;;;;5018334;28;20479;-77
2023/10/08 06:56:19;;;;;;;5.27;1.20;;;;;;;;;;5027411;28;20439;-79
2023/10/08 06:58:48;;;;;;;5.53;1.30;;;;;;;;;;5030293;28;20462;-78
2023/10/08 07:01:21;;;;;;;8.30;1.43;;;;;;;;;;5024655;28;20463;-78
2023/10/08 07:03:50;;;;;;;8.40;2.00;;;;;;;;;;5021825;28;20459;-77
2023/10/08 07:06:25;;;;;;;4.73;1.17;;;;;;;;;;5024279;28;20455;-79
2023/10/08 07:08:55;;;;;;;6.43;1.77;;;;;;;;;;5027976;28;20494;-79
2023/10/08 07:11:30;;;;;;;4.70;1.13;;;;;;;;;;5028306;28;20459;-77
2023/10/08 07:13:58;;;;;;;4.40;1.30;;;;;;;;;;5024918;28;20461;-78
2023/10/08 07:16:28;;;;;;;3.83;1.30;;;;;;;;;;5018515;28;20458;-78
2023/10/08 07:19:04;;;;;;;7.63;1.17;;;;;;;;;;5021596;28;20465;-77
2023/10/08 07:21:44;;;;;;;3.90;1.50;;;;;;;;;;5028119;28;20450;-78
2023/10/08 07:24:15;;;;;;;6.40;1.50;;;;;;;;;;5030961;28;20486;-78
2023/10/08 07:26:46;;;;;;;7.40;1.87;;;;;;;;;;5030034;28;20490;-77
2023/10/08 07:29:17;;;;;;;7.77;1.87;;;;;;;;;;5032456;28;20490;-79
2023/10/08 07:31:52;;;;;;;4.33;1.30;;;;;;;;;;5024199;28;20469;-77
2023/10/08 07:34:26;;;;;;;4.93;1.83;;;;;;;;;;5019506;28;20534;-79
2023/10/08 07:36:56;;;;;;;4.07;1.10;;;;;;;;;;5021464;28;20519;-77
2023/10/08 07:39:33;;;;;;;5.50;1.87;;;;;;;;;;5019500;28;20467;-79
2023/10/08 07:42:08;;;;;;;6.23;1.20;;;;;;;;;;5025965;28;20455;-78
2023/10/08 07:44:38;;;;;;;8.27;1.73;;;;;;;;;;5025353;28;20466;-80
2023/10/08 07:47:12;;;;;;;5.63;2.60;;;;;;;;;;5030502;28;20447;-79
2023/10/08 07:49:44;;;;;;;4.17;1.20;;;;;;;;;;5031497;28;20538;-78
2023/10/08 07:52:15;;;;;;;5.63;1.43;;;;;;;;;;5031281;28;20456;-78
2023/10/08 07:54:43;;;;;;;4.77;2.00;;;;;;;;;;5025292;28;20451;-78
2023/10/08 07:57:14;;;;;;;8.60;1.70;;;;;;;;;;5022614;28;20463;-79
2023/10/08 07:59:46;;;;;;;10.47;1.67;;;;;;;;;;5019743;28;20479;-79
2023/10/08 08:02:17;;;;;;;3.50;1.20;;;;;;;;;;5020240;28;20455;-78
2023/10/08 08:04:45;;;;;;;5.03;1.70;;;;;;;;;;5026020;28;20875;-78
2023/10/08 08:07:15;;;;;;;9.93;2.37;;;;;;;;;;5023291;28;20462;-79
2023/10/08 08:09:50;;;;;;;4.47;1.00;;;;;;;;;;5026225;28;20491;-78
2023/10/08 08:12:19;;;;;;;6.00;1.40;;;;;;;;;;5023022;28;20462;-79
2023/10/08 08:14:48;;;;;;;3.40;1.00;;;;;;;;;;5024101;28;20529;-78
2023/10/08 08:17:15;;;;;;;3.60;1.07;;;;;;;;;;5026916;28;20435;-78
2023/10/08 08:19:44;;;;;;;4.90;0.90;;;;;;;;;;5023120;28;20448;-78
2023/10/08 08:22:15;;;;;;;3.53;1.00;;;;;;;;;;5023441;28;20447;-77
2023/10/08 08:24:44;;;;;;;5.80;2.17;;;;;;;;;;5025285;28;20459;-79
2023/10/08 08:27:23;;;;;;;4.70;1.20;;;;;;;;;;5024163;28;20756;-80
2023/10/08 08:29:55;;;;;;;3.77;1.40;;;;;;;;;;5026240;28;20597;-79
2023/10/08 08:32:23;;;;;;;3.63;0.93;;;;;;;;;;5027025;28;20452;-79
2023/10/08 08:34:52;;;;;;;6.67;1.13;;;;;;;;;;5023970;28;20505;-79
2023/10/08 08:37:22;;;;;;;3.80;1.10;;;;;;;;;;5016500;28;20566;-77
2023/10/08 08:39:49;;;;;;;9.40;1.43;;;;;;;;;;5022028;28;20525;-78
2023/10/08 08:42:19;;;;;;;5.37;1.20;;;;;;;;;;5024034;28;20502;-79
2023/10/08 08:44:47;;;;;;;5.07;1.87;;;;;;;;;;5014387;28;20844;-77
2023/10/08 08:47:17;;;;;;;6.57;1.33;;;;;;;;;;5017830;28;20474;-79
2023/10/08 08:49:45;;;;;;;8.80;1.73;;;;;;;;;;5022270;28;20509;-78
2023/10/08 08:52:13;;;;;;;3.47;1.23;;;;;;;;;;5025611;28;20447;-79
2023/10/08 08:54:47;;;;;;;4.80;1.20;;;;;;;;;;5028413;28;20506;-76
2023/10/08 08:57:16;;;;;;;4.87;1.57;;;;;;;;;;5025164;28;20454;-78
2023/10/08 08:59:46;;;;;;;6.83;1.20;;;;;;;;;;5026768;28;20474;-78
2023/10/08 09:02:15;;;;;;;6.97;1.17;;;;;;;;;;5027889;28;20482;-77
2023/10/08 09:04:45;;;;;;;5.53;1.50;;;;;;;;;;5021909;28;20531;-79
2023/10/08 09:07:13;;;;;;;3.60;0.90;;;;;;;;;;5030107;28;20486;-77
2023/10/08 09:09:41;;;;;;;3.17;0.80;;;;;;;;;;5028075;28;20483;-78
2023/10/08 09:12:10;;;;;;;4.33;1.20;;;;;;;;;;5025972;28;20897;-78
2023/10/08 09:14:39;;;;;;;2.53;0.80;;;;;;;;;;5029543;28;20463;-78
2023/10/08 09:17:07;;;;;;;4.57;1.10;;;;;;;;;;5030097;28;20481;-78
2023/10/08 09:19:38;;;;;;;2.50;1.00;;;;;;;;;;5021300;28;20437;-77
2023/10/08 09:22:08;;;;;;;5.17;1.07;;;;;;;;;;5019199;28;20898;-77
2023/10/08 09:24:36;;;;;;;4.60;1.13;;;;;;;;;;5020108;28;20832;-78
2023/10/08 09:27:04;;;;;;;4.27;1.97;;;;;;;;;;5020318;28;20466;-77
2023/10/08 09:29:32;;;;;;;4.57;1.30;;;;;;;;;;5018275;28;20483;-77
2023/10/08 09:32:00;;;;;;;2.30;0.70;;;;;;;;;;5026913;28;20524;-79
2023/10/08 09:34:29;;;;;;;2.70;1.17;;;;;;;;;;5031834;28;20656;-79
2023/10/08 09:36:59;;;;;;;3.10;1.17;;;;;;;;;;5030443;28;20465;-78
2023/10/08 09:39:33;;;;;;;2.23;0.90;;;;;;;;;;5033559;28;20462;-78
2023/10/08 09:42:02;;;;;;;2.10;0.90;;;;;;;;;;5029595;28;20474;-78
2023/10/08 09:44:30;;;;;;;5.13;1.20;;;;;;;;;;5027780;28;20565;-78
2023/10/08 09:47:04;;;;;;;6.03;1.07;;;;;;;;;;5029327;28;20479;-79
2023/10/08 09:49:33;;;;;;;4.13;1.10;;;;;;;;;;5030584;28;20799;-77
2023/10/08 09:52:02;;;;;;;2.53;0.90;;;;;;;;;;5020312;28;20443;-78
2023/10/08 09:54:33;;;;;;;6.63;1.90;;;;;;;;;;5025449;28;20451;-79
2023/10/08 09:57:06;;;;;;;3.50;1.07;;;;;;;;;;5036255;28;20729;-79
2023/10/08 09:59:34;;;;;;;6.90;1.20;;;;;;;;;;5036061;28;20485;-78
2023/10/08 10:02:02;;;;;;;4.70;1.40;;;;;;;;;;5036614;28;20724;-78
2023/10/08 10:04:33;;;;;;;3.00;0.90;;;;;;;;;;5034473;28;20497;-78
2023/10/08 10:07:09;;;;;;;11.77;6.40;;;;;;;;;;5035475;28;20863;-78
2023/10/08 10:09:38;;;;;;;7.10;1.40;;;;;;;;;;5046954;28;20478;-78
2023/10/08 10:12:09;;;;;;;6.43;1.20;;;;;;;;;;5048286;28;20474;-78
2023/10/08 10:14:45;;;;;;;3.80;1.33;;;;;;;;;;5044825;28;20462;-77
2023/10/08 10:17:20;;;;;;;2.77;0.87;;;;;;;;;;5038200;28;20521;-77
2023/10/08 10:19:52;;;;;;;3.17;0.60;;;;;;;;;;5033825;28;20463;-78
2023/10/08 10:22:29;;;;;;;2.77;0.90;;;;;;;;;;5036811;28;20462;-77
2023/10/08 10:25:03;;;;;;;2.87;0.80;;;;;;;;;;5035304;28;20626;-75
2023/10/08 10:27:32;;;;;;;3.43;1.13;;;;;;;;;;5033722;28;21112;-77
2023/10/08 10:30:16;;;;;;;3.77;1.20;;;;;;;;;;5039072;28;20593;-77
2023/10/08 10:32:47;;;;;;;4.40;1.10;;;;;;;;;;5037395;28;20450;-77
2023/10/08 10:35:18;;;;;;;3.80;1.10;;;;;;;;;;5039034;28;20718;-78
2023/10/08 10:37:51;;;;;;;1.80;0.60;;;;;;;;;;5036263;28;20458;-77
2023/10/08 10:40:29;;;;;;;7.53;1.03;;;;;;;;;;5042965;28;20461;-77
2023/10/08 10:42:58;;;;;;;4.63;1.10;;;;;;;;;;5036603;28;20470;-78
2023/10/08 10:45:40;;;;;;;2.60;0.73;;;;;;;;;;5037017;28;20539;-78
2023/10/08 10:48:21;;;;;;;5.43;1.13;;;;;;;;;;5047830;28;20750;-78
2023/10/08 10:51:07;;;;;;;2.73;0.90;;;;;;;;;;5037314;28;20544;-77
2023/10/08 10:53:44;;;;;;;4.57;1.17;;;;;;;;;;5031985;28;20489;-75
2023/10/08 10:56:18;;;;;;;4.27;1.03;;;;;;;;;;5030532;28;20541;-74
2023/10/08 10:58:53;;;;;;;3.43;1.50;;;;;;;;;;5026787;28;20458;-75
2023/10/08 11:01:23;;;;;;;4.10;1.40;;;;;;;;;;5030140;28;20786;-75
2023/10/08 11:03:53;;;;;;;3.03;1.00;;;;;;;;;;5027688;28;20453;-78
2023/10/08 11:06:22;;;;;;;4.30;1.03;;;;;;;;;;5029398;28;20832;-76
2023/10/08 11:08:52;;;;;;;3.77;0.93;;;;;;;;;;5031867;28;20455;-78
2023/10/08 11:11:27;;;;;;;7.70;0.90;;;;;;;;;;5033670;28;20960;-76
2023/10/08 11:14:00;;;;;;;4.73;1.17;;;;;;;;;;5035431;28;20750;-75
2023/10/08 11:16:31;;;;;;;5.70;2.53;;;;;;;;;;5029940;28;20597;-74
2023/10/08 11:19:01;;;;;;;4.07;1.23;;;;;;;;;;5020220;28;20803;-76
2023/10/08 11:21:33;;;;;;;3.10;0.97;;;;;;;;;;5024518;28;20798;-73
2023/10/08 11:24:08;;;;;;;5.73;0.90;;;;;;;;;;5014177;28;20475;-76
2023/10/08 11:26:39;;;;;;;2.57;1.00;;;;;;;;;;5016056;28;20548;-75
2023/10/08 11:29:14;;;;;;;5.43;1.27;;;;;;;;;;5022099;28;20443;-74
2023/10/08 11:31:42;;;;;;;3.10;0.80;;;;;;;;;;5022159;28;20498;-76
2023/10/08 11:34:13;;;;;;;2.77;1.10;;;;;;;;;;5025474;28;20497;-75
2023/10/08 11:36:55;;;;;;;3.00;1.10;;;;;;;;;;5027038;28;20459;-75
2023/10/08 11:39:23;;;;;;;2.87;1.10;;;;;;;;;;5025898;28;20471;-77
2023/10/08 11:42:02;;;;;;;4.27;1.27;;;;;;;;;;5022924;28;20510;-75
2023/10/08 11:44:30;;;;;;;3.27;1.00;;;;;;;;;;5020274;28;20585;-75
2023/10/08 11:47:04;;;;;;;6.00;1.20;;;;;;;;;;5017699;28;20455;-75
2023/10/08 11:49:36;;;;;;;3.23;1.13;;;;;;;;;;5020869;28;20580;-76
2023/10/08 11:52:07;;;;;;;4.20;1.10;;;;;;;;;;5029135;28;20493;-76
2023/10/08 11:54:34;;;;;;;3.00;1.10;;;;;;;;;;5020780;28;20524;-75
2023/10/08 11:57:07;;;;;;;4.53;2.60;;;;;;;;;;5027619;28;20486;-75
2023/10/08 11:59:39;;;;;;;2.60;0.93;;;;;;;;;;5028332;28;20477;-76
2023/10/08 12:02:07;;;;;;;6.60;1.40;;;;;;;;;;5011991;28;20809;-75
2023/10/08 12:04:36;;;;;;;3.27;0.90;;;;;;;;;;5028748;28;20513;-77
2023/10/08 12:07:07;;;;;;;2.23;1.17;;;;;;;;;;5029914;28;20717;-75
2023/10/08 12:09:38;;;;;;;4.83;1.17;;;;;;;;;;5031953;28;20565;-77
2023/10/08 12:12:09;;;;;;;3.03;0.90;;;;;;;;;;5029622;28;20963;-75
2023/10/08 12:14:37;;;;;;;5.13;1.20;;;;;;;;;;5030153;28;20469;-74
2023/10/08 12:17:11;;;;;;;5.50;1.27;;;;;;;;;;5030892;28;20488;-76
2023/10/08 12:19:45;;;;;;;3.33;1.43;;;;;;;;;;5030330;28;20450;-76
2023/10/08 12:22:17;;;;;;;3.00;0.90;;;;;;;;;;5032909;28;20458;-76
2023/10/08 12:24:46;;;;;;;6.60;2.80;;;;;;;;;;5030338;28;20450;-76
2023/10/08 12:27:17;;;;;;;4.30;1.30;;;;;;;;;;5028283;28;20448;-76
2023/10/08 12:29:44;;;;;;;9.70;1.40;;;;;;;;;;5035570;28;20504;-77
2023/10/08 12:32:17;;;;;;;3.33;1.63;;;;;;;;;;5037378;28;20457;-75
2023/10/08 12:34:45;;;;;;;3.03;1.00;;;;;;;;;;5032618;28;20886;-76
2023/10/08 12:37:14;;;;;;;5.03;1.10;;;;;;;;;;5030529;28;20530;-75
2023/10/08 12:39:59;;;;;;;2.73;1.20;;;;;;;;;;5032385;28;20454;-75
2023/10/08 12:42:30;;;;;;;3.77;1.30;;;;;;;;;;5034341;28;20439;-75
2023/10/08 12:45:01;;;;;;;3.40;1.03;;;;;;;;;;5035816;28;20665;-76
2023/10/08 12:47:36;;;;;;;5.47;1.40;;;;;;;;;;5035368;28;20453;-75
2023/10/08 12:50:09;;;;;;;4.33;1.87;;;;;;;;;;5034135;28;20497;-76
2023/10/08 12:52:47;;;;;;;3.80;1.60;;;;;;;;;;5036640;28;20462;-79
2023/10/08 12:55:16;;;;;;;4.20;1.37;;;;;;;;;;5036079;28;20462;-75
2023/10/08 12:57:53;;;;;;;5.30;1.53;;;;;;;;;;5032582;28;20489;-75
2023/10/08 13:00:23;;;;;;;3.57;1.00;;;;;;;;;;5033870;28;20720;-77
2023/10/08 13:02:53;;;;;;;4.23;1.10;;;;;;;;;;5029121;28;20550;-75
2023/10/08 13:05:27;;;;;;;4.07;1.30;;;;;;;;;;5028130;28;20454;-76
2023/10/08 13:07:56;;;;;;;2.20;0.97;;;;;;;;;;5029490;28;20458;-75
2023/10/08 13:10:26;;;;;;;5.23;1.10;;;;;;;;;;5031333;28;20490;-75
2023/10/08 13:12:56;;;;;;;2.50;0.90;;;;;;;;;;5030751;28;20454;-76
2023/10/08 13:15:26;;;;;;;5.20;0.97;;;;;;;;;;5030646;28;20443;-75
2023/10/08 13:17:54;;;;;;;3.40;0.93;;;;;;;;;;5028928;28;20581;-78
2023/10/08 13:20:25;;;;;;;2.97;1.13;;;;;;;;;;5029877;28;20880;-74
2023/10/08 13:22:54;;;;;;;4.87;0.90;;;;;;;;;;5026241;28;20461;-75
2023/10/08 13:25:22;;;;;;;3.13;0.90;;;;;;;;;;5032292;28;20454;-77
2023/10/08 13:27:50;;;;;;;2.27;1.00;;;;;;;;;;5029890;28;20502;-77
2023/10/08 13:30:20;;;;;;;2.40;1.00;;;;;;;;;;5025000;28;20518;-77
2023/10/08 13:32:48;;;;;;;6.73;1.20;;;;;;;;;;5025281;28;20562;-75
2023/10/08 13:35:16;;;;;;;3.40;0.93;;;;;;;;;;5025693;28;20763;-76
2023/10/08 13:37:44;;;;;;;2.80;1.13;;;;;;;;;;5029992;28;20454;-76
2023/10/08 13:40:16;;;;;;;2.60;0.70;;;;;;;;;;5029625;28;20843;-76
2023/10/08 13:42:46;;;;;;;1.90;0.93;;;;;;;;;;5029522;28;20462;-73
2023/10/08 13:45:26;;;;;;;3.20;0.83;;;;;;;;;;5032489;28;20446;-74
2023/10/08 13:48:01;;;;;;;3.53;2.10;;;;;;;;;;5039147;28;20469;-76
2023/10/08 13:50:30;;;;;;;4.63;1.10;;;;;;;;;;5039288;28;20485;-76
2023/10/08 13:53:01;;;;;;;4.43;1.07;;;;;;;;;;5037311;28;20565;-77
2023/10/08 13:55:30;;;;;;;6.00;1.50;;;;;;;;;;5032358;28;20466;-74
2023/10/08 13:57:58;;;;;;;2.90;0.90;;;;;;;;;;5032488;28;20466;-75
2023/10/08 14:00:36;;;;;;;2.83;0.90;;;;;;;;;;5034646;28;20434;-76
2023/10/08 14:03:08;;;;;;;2.83;1.00;;;;;;;;;;5032678;28;20462;-76
2023/10/08 14:05:37;;;;;;;3.67;0.93;;;;;;;;;;5030464;28;20457;-75
2023/10/08 14:08:12;;;;;;;3.00;1.00;;;;;;;;;;5029758;28;20450;-76
2023/10/08 14:10:43;;;;;;;2.40;1.13;;;;;;;;;;5034160;28;20489;-75
2023/10/08 14:13:11;;;;;;;1.93;0.87;;;;;;;;;;5034895;28;20468;-79
2023/10/08 14:15:46;;;;;;;3.67;1.57;;;;;;;;;;5033444;28;20472;-74
2023/10/08 14:18:16;;;;;;;5.37;2.10;;;;;;;;;;5034106;28;20458;-75
2023/10/08 14:20:46;;;;;;;3.73;1.10;;;;;;;;;;5033419;28;20667;-75
2023/10/08 14:23:17;;;;;;;3.87;0.90;;;;;;;;;;5030873;28;20914;-76
2023/10/08 14:25:46;;;;;;;3.90;1.60;;;;;;;;;;5031310;28;20533;-77
2023/10/08 14:28:36;;;;;;;5.80;1.73;;;;;;;;;;5030513;28;20473;-77
2023/10/08 14:31:15;;;;;;;2.73;1.30;;;;;;;;;;5035246;28;20788;-77
2023/10/08 14:33:43;;;;;;;3.20;1.27;;;;;;;;;;5035081;28;20520;-77
2023/10/08 14:44:30;;;;;;;4.60;1.10;;;;;;;;;;5027640;28;20741;-76
2023/10/08 14:47:01;;;;;;;3.87;1.60;;;;;;;;;;5030023;28;20536;-75
2023/10/08 14:49:28;;;;;;;2.83;1.10;;;;;;;;;;5029516;28;20695;-73
2023/10/08 14:51:55;;;;;;;5.53;1.63;;;;;;;;;;5027503;28;20543;-77
2023/10/08 14:54:24;;;;;;;2.70;1.23;;;;;;;;;;5028039;28;20485;-75
2023/10/08 14:56:52;;;;;;;4.97;1.50;;;;;;;;;;5031622;28;20714;-78
2023/10/08 14:59:21;;;;;;;3.53;1.00;;;;;;;;;;5014652;28;20467;-76
2023/10/08 15:01:53;;;;;;;2.53;1.00;;;;;;;;;;5008221;28;20465;-76
2023/10/08 15:04:22;;;;;;;3.83;1.13;;;;;;;;;;5033868;28;20458;-78
2023/10/08 15:06:49;;;;;;;3.60;1.07;;;;;;;;;;5027031;28;21151;-74
2023/10/08 15:09:21;;;;;;;7.93;1.63;;;;;;;;;;5029536;28;20510;-75
2023/10/08 15:11:48;;;;;;;3.87;1.43;;;;;;;;;;5029706;28;20478;-77
2023/10/08 15:14:16;;;;;;;2.50;1.20;;;;;;;;;;5029133;28;20450;-74
2023/10/08 15:16:51;;;;;;;3.70;1.20;;;;;;;;;;5027217;28;20878;-76
2023/10/08 15:19:20;;;;;;;3.97;1.00;;;;;;;;;;5029971;28;20501;-75
2023/10/08 15:21:53;;;;;;;4.60;1.20;;;;;;;;;;5030465;28;20458;-76
2023/10/08 15:24:22;;;;;;;2.23;1.10;;;;;;;;;;5033027;28;20446;-76
2023/10/08 15:27:04;;;;;;;2.60;0.90;;;;;;;;;;5031691;28;20890;-76
2023/10/08 15:29:33;;;;;;;3.33;1.40;;;;;;;;;;5025278;28;20454;-76
2023/10/08 15:32:00;;;;;;;3.57;0.83;;;;;;;;;;5032268;28;20482;-75
2023/10/08 15:34:28;;;;;;;4.47;1.30;;;;;;;;;;5031691;28;20486;-76